Time;durP1;ratioP1;P1;durP2;ratioP2;P2;SDS_P1;SDS_P2;PMS_P1;PMS_P2;Temp;Humidity;BMP_temperature;BMP_pressure;BME280_temperature;BME280_humidity;BME280_pressure;Samples;Min_cycle;Max_cycle;Signal;HPM_P1;HPM_P2
2023/05/14 00:01:54;;;;;;;;;;;;;;;13.10;75.63;100004.25;4461620;32;33068;-81
2023/05/14 00:04:22;;;;;;;;;;;;;;;12.47;77.68;100005.31;4465618;32;34714;-80
2023/05/14 00:06:51;;;;;;;;;;;;;;;12.83;76.74;100000.41;4456782;32;34872;-81
2023/05/14 00:09:21;;;;;;;;;;;;;;;12.33;79.30;100002.94;4449256;32;34843;-81
2023/05/14 00:11:49;;;;;;;;;;;;;;;12.50;78.74;99992.25;4452887;32;33958;-81
2023/05/14 00:14:18;;;;;;;;;;;;;;;12.40;79.06;99998.50;4449348;32;34232;-80
2023/05/14 00:16:46;;;;;;;;;;;;;;;12.25;79.35;99986.59;4444581;32;33831;-80
2023/05/14 00:19:15;;;;;;;;;;;;;;;12.44;78.31;99994.94;4448802;32;33516;-81
2023/05/14 00:21:45;;;;;;;;;;;;;;;12.58;78.37;99985.16;4460456;32;32899;-80
2023/05/14 00:24:14;;;;;;;;;;;;;;;12.68;77.32;99985.87;4480336;32;33847;-80
2023/05/14 00:26:44;;;;;;;;;;;;;;;12.57;77.29;99988.66;4472479;32;34301;-80
2023/05/14 00:29:12;;;;;;;;;;;;;;;12.61;77.53;99984.25;4460907;32;34188;-81
2023/05/14 00:31:41;;;;;;;;;;;;;;;12.67;76.66;99975.50;4453621;32;32811;-81
2023/05/14 00:34:09;;;;;;;;;;;;;;;12.42;77.63;99985.44;4452216;32;34164;-81
2023/05/14 00:36:38;;;;;;;;;;;;;;;12.56;77.42;99973.06;4467441;32;34450;-79
2023/05/14 00:39:06;;;;;;;;;;;;;;;12.72;77.29;99968.47;4460539;32;34344;-79
2023/05/14 00:41:35;;;;;;;;;;;;;;;11.95;80.37;99975.75;4460692;32;33791;-79
2023/05/14 00:44:05;;;;;;;;;;;;;;;12.02;81.42;99970.47;4459788;32;34446;-80
2023/05/14 00:46:33;;;;;;;;;;;;;;;12.01;80.61;99968.72;4466480;32;33852;-80
2023/05/14 00:49:02;;;;;;;;;;;;;;;11.95;79.96;99962.75;4460574;32;34097;-80
2023/05/14 00:51:30;;;;;;;;;;;;;;;11.90;81.28;99954.16;4460516;32;32994;-79
2023/05/14 00:53:59;;;;;;;;;;;;;;;11.93;80.63;99956.69;4462060;32;34305;-79
2023/05/14 00:56:27;;;;;;;;;;;;;;;11.75;81.73;99950.00;4477820;32;33760;-80
2023/05/14 00:58:56;;;;;;;;;;;;;;;12.04;79.92;99948.75;4463537;32;35736;-79
2023/05/14 01:01:27;;;;;;;;;;;;;;;11.87;80.07;99954.19;4462600;32;33738;-79
2023/05/14 01:03:56;;;;;;;;;;;;;;;12.23;78.43;99945.88;4462390;32;34260;-79
2023/05/14 01:06:26;;;;;;;;;;;;;;;12.00;79.06;99941.03;4462344;32;33871;-79
2023/05/14 01:08:57;;;;;;;;;;;;;;;11.69;79.94;99938.81;4468067;32;33918;-80
2023/05/14 01:11:26;;;;;;;;;;;;;;;11.91;78.99;99935.09;4462001;32;33641;-79
2023/05/14 01:13:56;;;;;;;;;;;;;;;11.98;78.80;99940.19;4462606;32;33840;-80
2023/05/14 01:16:26;;;;;;;;;;;;;;;11.99;78.01;99934.13;4462337;32;33324;-79
2023/05/14 01:18:55;;;;;;;;;;;;;;;11.94;78.86;99929.84;4468466;32;32196;-80
2023/05/14 01:21:29;;;;;;;;;;;;;;;12.16;77.55;99939.91;4456111;32;33672;-80
2023/05/14 01:23:58;;;;;;;;;;;;;;;11.93;78.31;99929.84;4474895;32;34759;-80
2023/05/14 01:26:26;;;;;;;;;;;;;;;12.07;78.07;99925.28;4462374;32;34484;-80
2023/05/14 01:28:55;;;;;;;;;;;;;;;12.10;78.17;99925.25;4462355;32;34389;-80
2023/05/14 01:31:26;;;;;;;;;;;;;;;12.14;77.11;99926.91;4468048;32;33156;-80
2023/05/14 01:33:55;;;;;;;;;;;;;;;12.35;76.80;99922.28;4462397;32;34967;-80
2023/05/14 01:36:23;;;;;;;;;;;;;;;12.35;76.54;99922.28;4462279;32;34280;-80
2023/05/14 01:38:53;;;;;;;;;;;;;;;12.15;77.38;99914.78;4462057;32;34992;-81
2023/05/14 01:41:21;;;;;;;;;;;;;;;11.84;78.06;99910.03;4467683;32;32761;-80
2023/05/14 01:43:51;;;;;;;;;;;;;;;11.98;77.53;99899.44;4462269;32;34575;-81
2023/05/14 01:46:20;;;;;;;;;;;;;;;11.78;78.79;99894.50;4462158;32;34259;-81
2023/05/14 01:48:48;;;;;;;;;;;;;;;12.08;77.83;99900.16;4462166;32;34719;-81
2023/05/14 01:51:16;;;;;;;;;;;;;;;11.48;80.26;99883.69;4461866;32;33322;-80
2023/05/14 01:53:47;;;;;;;;;;;;;;;11.81;78.29;99884.06;4467310;32;35473;-80
2023/05/14 01:56:17;;;;;;;;;;;;;;;11.89;77.62;99874.47;4462027;32;34764;-81
2023/05/14 01:58:45;;;;;;;;;;;;;;;11.77;78.04;99877.22;4461849;32;33934;-80
2023/05/14 02:01:14;;;;;;;;;;;;;;;11.70;78.67;99875.59;4464959;32;32759;-80
2023/05/14 02:03:43;;;;;;;;;;;;;;;11.56;78.95;99877.53;4466209;32;34974;-80
2023/05/14 02:06:11;;;;;;;;;;;;;;;11.76;78.44;99878.06;4460908;32;33997;-81
2023/05/14 02:08:39;;;;;;;;;;;;;;;11.63;78.24;99873.97;4461655;32;34482;-81
2023/05/14 02:11:08;;;;;;;;;;;;;;;11.32;79.64;99875.22;4459005;32;33837;-80
2023/05/14 02:13:38;;;;;;;;;;;;;;;11.58;79.02;99875.75;4465519;32;34681;-81
2023/05/14 02:16:07;;;;;;;;;;;;;;;11.69;78.02;99871.25;4464334;32;33870;-81
2023/05/14 02:18:35;;;;;;;;;;;;;;;11.99;77.15;99882.13;4458845;32;33797;-81
2023/05/14 02:21:04;;;;;;;;;;;;;;;11.43;78.94;99874.22;4460863;32;32757;-81
2023/05/14 02:23:33;;;;;;;;;;;;;;;11.71;78.10;99874.69;4461064;32;35005;-80
2023/05/14 02:26:09;;;;;;;;;;;;;;;11.75;77.22;99872.03;4461294;32;34000;-82
2023/05/14 02:28:39;;;;;;;;;;;;;;;11.69;78.10;99877.34;4461151;32;33833;-81
2023/05/14 02:31:07;;;;;;;;;;;;;;;11.91;76.56;99861.41;4460345;32;33318;-80
2023/05/14 02:33:36;;;;;;;;;;;;;;;11.74;76.90;99869.44;4460898;32;33964;-81
2023/05/14 02:36:07;;;;;;;;;;;;;;;12.08;75.81;99863.75;4466213;32;34778;-80
2023/05/14 02:38:36;;;;;;;;;;;;;;;12.08;75.55;99862.03;4461158;32;33814;-81
2023/05/14 02:41:04;;;;;;;;;;;;;;;12.07;75.54;99862.88;4460649;32;33676;-81
2023/05/14 02:43:33;;;;;;;;;;;;;;;12.25;75.37;99866.06;4461180;32;34696;-81
2023/05/14 02:46:03;;;;;;;;;;;;;;;11.80;76.82;99871.09;4460036;32;33847;-81
2023/05/14 02:48:31;;;;;;;;;;;;;;;11.54;78.22;99873.19;4466571;32;34819;-82
2023/05/14 02:50:59;;;;;;;;;;;;;;;11.66;77.97;99871.31;4460590;32;33051;-80
2023/05/14 02:53:28;;;;;;;;;;;;;;;11.92;76.90;99858.81;4472888;32;33799;-81
2023/05/14 02:55:56;;;;;;;;;;;;;;;11.99;76.54;99854.38;4459705;32;34320;-82
2023/05/14 02:58:25;;;;;;;;;;;;;;;11.63;77.86;99860.97;4467394;32;34681;-80
2023/05/14 03:00:56;;;;;;;;;;;;;;;12.03;76.41;99853.41;4460001;32;34048;-82
2023/05/14 03:03:26;;;;;;;;;;;;;;;11.95;76.89;99858.75;4460751;32;33975;-82
2023/05/14 03:05:55;;;;;;;;;;;;;;;11.63;78.10;99853.16;4461038;32;34378;-80
2023/05/14 03:08:24;;;;;;;;;;;;;;;11.65;77.99;99854.00;4464686;32;33968;-81
2023/05/14 03:10:52;;;;;;;;;;;;;;;11.72;78.09;99850.44;4467025;32;33278;-81
2023/05/14 03:13:21;;;;;;;;;;;;;;;12.30;76.12;99857.31;4461376;32;33920;-81
2023/05/14 03:15:53;;;;;;;;;;;;;;;12.26;75.77;99853.03;4461622;32;33969;-81
2023/05/14 03:18:22;;;;;;;;;;;;;;;12.62;73.81;99861.06;4461852;32;34791;-81
2023/05/14 03:20:54;;;;;;;;;;;;;;;12.31;74.92;99855.56;4466596;32;33214;-80
2023/05/14 03:23:23;;;;;;;;;;;;;;;12.10;76.35;99851.56;4452689;32;34811;-81
2023/05/14 03:25:52;;;;;;;;;;;;;;;12.70;74.38;99850.50;4461636;32;34233;-81
2023/05/14 03:28:20;;;;;;;;;;;;;;;11.99;76.87;99843.97;4461935;32;34096;-81
2023/05/14 03:30:49;;;;;;;;;;;;;;;11.78;77.76;99849.47;4467384;32;34137;-80
2023/05/14 03:33:18;;;;;;;;;;;;;;;11.64;78.51;99847.06;4466261;32;33000;-81
2023/05/14 03:35:46;;;;;;;;;;;;;;;11.90;77.27;99838.91;4463246;32;34064;-81
2023/05/14 03:38:16;;;;;;;;;;;;;;;12.15;76.05;99842.84;4461658;32;33982;-82
2023/05/14 03:40:46;;;;;;;;;;;;;;;12.36;74.88;99854.59;4461629;32;32997;-82
2023/05/14 03:43:16;;;;;;;;;;;;;;;12.30;74.96;99849.50;4466981;32;33714;-81
2023/05/14 03:45:44;;;;;;;;;;;;;;;11.99;77.18;99840.50;4461601;32;34281;-81
2023/05/14 03:48:13;;;;;;;;;;;;;;;11.90;76.69;99849.31;4461480;32;34680;-81
2023/05/14 03:50:42;;;;;;;;;;;;;;;11.92;76.89;99839.75;4468790;32;33507;-81
2023/05/14 03:53:10;;;;;;;;;;;;;;;11.62;77.82;99833.25;4486032;32;33384;-82
2023/05/14 03:55:40;;;;;;;;;;;;;;;11.31;79.38;99838.91;4463758;32;35036;-82
2023/05/14 03:58:12;;;;;;;;;;;;;;;11.69;77.87;99838.34;4461471;32;33671;-82
2023/05/14 04:00:41;;;;;;;;;;;;;;;12.08;75.70;99837.72;4461211;32;33255;-81
2023/05/14 04:03:10;;;;;;;;;;;;;;;11.71;77.02;99835.72;4461357;32;33708;-82
2023/05/14 04:05:39;;;;;;;;;;;;;;;11.61;77.54;99836.75;4468190;32;33994;-83
2023/05/14 04:08:08;;;;;;;;;;;;;;;11.80;76.25;99830.38;4458027;32;33382;-81
2023/05/14 04:10:36;;;;;;;;;;;;;;;11.95;75.98;99824.94;4458654;32;33022;-82
2023/05/14 04:13:06;;;;;;;;;;;;;;;12.11;74.72;99825.56;4456465;32;34732;-81
2023/05/14 04:15:38;;;;;;;;;;;;;;;11.70;75.60;99837.47;4466695;32;33208;-81
2023/05/14 04:18:06;;;;;;;;;;;;;;;11.54;76.39;99835.97;4461206;32;34485;-82
2023/05/14 04:20:35;;;;;;;;;;;;;;;11.82;76.03;99835.56;4461195;32;33212;-81
2023/05/14 04:23:04;;;;;;;;;;;;;;;12.03;74.36;99829.16;4461232;32;34175;-81
2023/05/14 04:25:32;;;;;;;;;;;;;;;11.92;74.85;99829.34;4462631;32;34994;-83
2023/05/14 04:28:01;;;;;;;;;;;;;;;12.24;73.95;99827.94;4470780;32;33626;-82
2023/05/14 04:30:30;;;;;;;;;;;;;;;12.21;73.48;99821.06;4466084;32;33034;-82
2023/05/14 04:32:59;;;;;;;;;;;;;;;11.99;74.52;99815.38;4446153;32;33691;-82
2023/05/14 04:35:28;;;;;;;;;;;;;;;11.85;74.43;99818.16;4462903;32;35097;-82
2023/05/14 04:37:56;;;;;;;;;;;;;;;12.19;73.80;99828.00;4475885;32;33701;-82
2023/05/14 04:40:25;;;;;;;;;;;;;;;12.77;71.21;99834.72;4459641;32;33754;-82
2023/05/14 04:42:53;;;;;;;;;;;;;;;12.27;72.36;99828.72;4460004;32;34295;-82
2023/05/14 04:45:22;;;;;;;;;;;;;;;12.49;71.97;99828.34;4463575;32;35242;-82
2023/05/14 04:47:54;;;;;;;;;;;;;;;12.69;71.23;99838.38;4466453;32;34116;-81
2023/05/14 04:50:23;;;;;;;;;;;;;;;12.65;70.91;99829.75;4467432;32;33246;-81
2023/05/14 04:52:52;;;;;;;;;;;;;;;12.43;72.11;99834.53;4460601;32;34141;-82
2023/05/14 04:55:20;;;;;;;;;;;;;;;12.12;73.29;99829.84;4460535;32;33777;-82
2023/05/14 04:57:49;;;;;;;;;;;;;;;11.99;73.92;99823.16;4460698;32;33977;-82
2023/05/14 05:00:18;;;;;;;;;;;;;;;12.12;73.52;99823.81;4466064;32;33656;-81
2023/05/14 05:02:46;;;;;;;;;;;;;;;11.89;74.61;99822.47;4459916;32;34615;-82
2023/05/14 05:05:16;;;;;;;;;;;;;;;12.42;72.55;99821.53;4460288;32;34113;-82
2023/05/14 05:07:44;;;;;;;;;;;;;;;12.15;73.98;99819.44;4460414;32;34142;-81
2023/05/14 05:10:13;;;;;;;;;;;;;;;11.88;75.22;99825.06;4470485;32;33312;-81
2023/05/14 05:12:41;;;;;;;;;;;;;;;12.23;74.42;99824.47;4464976;32;33896;-81
2023/05/14 05:15:10;;;;;;;;;;;;;;;12.00;74.81;99813.62;4460449;32;33830;-81
2023/05/14 05:17:38;;;;;;;;;;;;;;;11.98;75.37;99820.59;4460330;32;33899;-81
2023/05/14 05:20:08;;;;;;;;;;;;;;;12.00;76.21;99818.81;4465949;32;32856;-82
2023/05/14 05:22:38;;;;;;;;;;;;;;;11.80;75.78;99816.53;4464762;32;34738;-82
2023/05/14 05:25:07;;;;;;;;;;;;;;;12.22;75.19;99809.75;4460010;32;33705;-82
2023/05/14 05:27:36;;;;;;;;;;;;;;;11.95;76.07;99811.09;4460343;32;33778;-82
2023/05/14 05:30:07;;;;;;;;;;;;;;;11.91;75.24;99812.91;4460293;32;34173;-82
2023/05/14 05:32:35;;;;;;;;;;;;;;;12.18;73.92;99815.91;4465347;32;34139;-82
2023/05/14 05:35:04;;;;;;;;;;;;;;;11.75;74.59;99811.41;4460020;32;33746;-82
2023/05/14 05:37:33;;;;;;;;;;;;;;;12.00;74.56;99808.41;4459804;32;33542;-81
2023/05/14 05:40:04;;;;;;;;;;;;;;;12.18;73.81;99813.31;4466437;32;32897;-81
2023/05/14 05:42:33;;;;;;;;;;;;;;;12.10;74.67;99815.16;4480923;32;34539;-82
2023/05/14 05:45:01;;;;;;;;;;;;;;;11.81;75.32;99813.88;4484184;32;34281;-81
2023/05/14 05:47:31;;;;;;;;;;;;;;;11.78;75.85;99813.94;4479583;32;33127;-82
2023/05/14 05:50:00;;;;;;;;;;;;;;;11.95;74.24;99814.53;4477846;32;33459;-82
2023/05/14 05:52:29;;;;;;;;;;;;;;;11.89;76.03;99814.66;4478194;32;33973;-81
2023/05/14 05:54:57;;;;;;;;;;;;;;;11.93;75.61;99815.44;4467186;32;34960;-81
2023/05/14 05:57:27;;;;;;;;;;;;;;;12.09;74.46;99822.12;4464097;32;33789;-82
2023/05/14 05:59:55;;;;;;;;;;;;;;;12.20;74.16;99823.66;4462091;32;33327;-81
2023/05/14 06:02:24;;;;;;;;;;;;;;;11.98;76.13;99823.19;4462001;32;33830;-79
2023/05/14 06:04:53;;;;;;;;;;;;;;;12.23;75.40;99824.47;4466874;32;33888;-80
2023/05/14 06:07:21;;;;;;;;;;;;;;;12.30;75.26;99820.88;4462313;32;35007;-80
2023/05/14 06:09:49;;;;;;;;;;;;;;;12.05;76.09;99830.00;4461673;32;33145;-81
2023/05/14 06:12:18;;;;;;;;;;;;;;;12.08;76.34;99833.41;4461619;32;33278;-78
2023/05/14 06:14:48;;;;;;;;;;;;;;;12.24;76.57;99834.00;4467506;32;33746;-79
2023/05/14 06:17:18;;;;;;;;;;;;;;;12.36;77.26;99831.16;4468113;32;33874;-80
2023/05/14 06:19:47;;;;;;;;;;;;;;;12.26;77.76;99837.44;4461810;32;33327;-79
2023/05/14 06:22:15;;;;;;;;;;;;;;;12.43;76.77;99838.88;4461923;32;34380;-80
2023/05/14 06:24:44;;;;;;;;;;;;;;;12.86;75.84;99840.66;4461649;32;34337;-78
2023/05/14 06:27:12;;;;;;;;;;;;;;;12.77;76.21;99839.94;4467372;32;33791;-79
2023/05/14 06:29:40;;;;;;;;;;;;;;;12.18;78.47;99839.31;4461876;32;32796;-79
2023/05/14 06:32:14;;;;;;;;;;;;;;;12.30;78.34;99831.28;4462113;32;34519;-78
2023/05/14 06:34:42;;;;;;;;;;;;;;;11.92;79.84;99829.34;4462019;32;34227;-78
2023/05/14 06:37:11;;;;;;;;;;;;;;;12.34;78.94;99848.53;4467484;32;34893;-78
2023/05/14 06:39:42;;;;;;;;;;;;;;;12.81;76.97;99830.34;4461674;32;33046;-78
2023/05/14 06:42:11;;;;;;;;;;;;;;;12.78;76.48;99831.25;4462255;32;34006;-78
2023/05/14 06:44:40;;;;;;;;;;;;;;;12.07;80.09;99823.03;4463454;32;33590;-79
2023/05/14 06:47:09;;;;;;;;;;;;;;;12.27;79.59;99826.13;4467689;32;33769;-80
2023/05/14 06:49:38;;;;;;;;;;;;;;;12.06;80.31;99822.19;4470754;32;33953;-79
2023/05/14 06:52:06;;;;;;;;;;;;;;;11.94;82.18;99820.63;4461602;32;33912;-79
2023/05/14 06:54:35;;;;;;;;;;;;;;;12.11;81.78;99814.31;4461634;32;34008;-80
2023/05/14 06:57:04;;;;;;;;;;;;;;;12.23;81.49;99816.69;4460112;32;33644;-78
2023/05/14 06:59:32;;;;;;;;;;;;;;;12.22;81.13;99809.75;4466810;32;34112;-80
2023/05/14 07:02:01;;;;;;;;;;;;;;;12.37;80.52;99811.22;4459369;32;34587;-80
2023/05/14 07:04:31;;;;;;;;;;;;;;;12.61;80.69;99812.47;4463665;32;34817;-78
2023/05/14 07:06:59;;;;;;;;;;;;;;;11.79;82.18;99805.28;4461541;32;34224;-79
2023/05/14 07:09:27;;;;;;;;;;;;;;;12.19;82.91;99794.19;4467004;32;33079;-78
2023/05/14 07:11:56;;;;;;;;;;;;;;;11.91;83.69;99791.22;4465479;32;35279;-79
2023/05/14 07:14:25;;;;;;;;;;;;;;;11.88;85.28;99794.72;4462013;32;35018;-78
2023/05/14 07:16:53;;;;;;;;;;;;;;;12.30;83.21;99794.87;4471374;32;34045;-79
2023/05/14 07:19:22;;;;;;;;;;;;;;;12.23;83.48;99795.87;4465635;32;33652;-78
2023/05/14 07:21:51;;;;;;;;;;;;;;;12.20;83.52;99790.72;4467082;32;33809;-78
2023/05/14 07:24:20;;;;;;;;;;;;;;;12.54;80.50;99790.06;4461862;32;34846;-79
2023/05/14 07:26:49;;;;;;;;;;;;;;;12.86;79.09;99783.38;4461296;32;33825;-79
2023/05/14 07:29:17;;;;;;;;;;;;;;;12.57;80.75;99785.69;4461143;32;32941;-77
2023/05/14 07:31:45;;;;;;;;;;;;;;;12.48;81.12;99785.00;4465197;32;34193;-75
2023/05/14 07:34:14;;;;;;;;;;;;;;;12.46;81.00;99792.81;4461115;32;33948;-77
2023/05/14 07:36:42;;;;;;;;;;;;;;;13.09;80.59;99783.72;4460728;32;35052;-76
2023/05/14 07:39:15;;;;;;;;;;;;;;;13.05;79.10;99786.41;4459093;32;33355;-76
2023/05/14 07:41:44;;;;;;;;;;;;;;;12.75;80.75;99779.22;4454762;32;34208;-76
2023/05/14 07:44:12;;;;;;;;;;;;;;;12.85;80.32;99782.50;4466405;32;33394;-76
2023/05/14 07:46:40;;;;;;;;;;;;;;;13.54;77.92;99775.78;4460941;32;34899;-76
2023/05/14 07:49:09;;;;;;;;;;;;;;;13.27;79.28;99772.09;4458651;32;33262;-76
2023/05/14 07:51:38;;;;;;;;;;;;;;;12.85;79.30;99769.47;4460323;32;34362;-77
2023/05/14 07:54:06;;;;;;;;;;;;;;;13.68;76.66;99772.00;4463645;32;36753;-76
2023/05/14 07:56:36;;;;;;;;;;;;;;;13.17;79.38;99770.56;4456726;32;33924;-76
2023/05/14 07:59:05;;;;;;;;;;;;;;;12.81;79.28;99760.03;4458970;32;34004;-77
2023/05/14 08:01:34;;;;;;;;;;;;;;;13.49;79.37;99767.22;4460901;32;34334;-77
2023/05/14 08:04:06;;;;;;;;;;;;;;;13.10;79.57;99762.00;4464072;32;33599;-77
2023/05/14 08:06:36;;;;;;;;;;;;;;;13.05;79.56;99749.97;4460359;32;34407;-76
2023/05/14 08:09:05;;;;;;;;;;;;;;;13.72;77.59;99747.53;4457607;32;32950;-76
2023/05/14 08:11:33;;;;;;;;;;;;;;;13.78;77.13;99750.00;4457021;32;33874;-77
2023/05/14 08:14:03;;;;;;;;;;;;;;;13.98;76.93;99745.12;4455703;32;35119;-76
2023/05/14 08:16:31;;;;;;;;;;;;;;;14.38;75.17;99738.00;4464829;32;33845;-76
2023/05/14 08:19:00;;;;;;;;;;;;;;;13.87;76.08;99731.53;4459130;32;34439;-77
2023/05/14 08:21:28;;;;;;;;;;;;;;;13.76;76.57;99731.78;4459044;32;34369;-77
2023/05/14 08:23:59;;;;;;;;;;;;;;;13.77;75.92;99736.13;4463668;32;34305;-77
2023/05/14 08:26:27;;;;;;;;;;;;;;;13.40;78.41;99723.12;4464909;32;33961;-76
2023/05/14 08:28:56;;;;;;;;;;;;;;;13.81;76.84;99726.47;4457507;32;33551;-76
2023/05/14 08:31:25;;;;;;;;;;;;;;;13.86;76.97;99724.59;4462573;32;33551;-77
2023/05/14 08:33:54;;;;;;;;;;;;;;;13.17;80.58;99723.66;4460702;32;34017;-77
2023/05/14 08:36:22;;;;;;;;;;;;;;;13.95;78.10;99724.34;4460234;32;34283;-77
2023/05/14 08:38:51;;;;;;;;;;;;;;;13.98;78.04;99715.59;4466255;32;33340;-76
2023/05/14 08:41:20;;;;;;;;;;;;;;;13.76;78.87;99710.94;4460060;32;33931;-76
2023/05/14 08:43:51;;;;;;;;;;;;;;;13.40;80.41;99708.34;4460446;32;33622;-78
2023/05/14 08:46:19;;;;;;;;;;;;;;;13.73;80.82;99712.78;4459347;32;33390;-76
2023/05/14 08:48:50;;;;;;;;;;;;;;;13.69;79.23;99705.91;4466189;32;33238;-76
2023/05/14 08:51:18;;;;;;;;;;;;;;;13.82;79.18;99708.19;4455810;32;34501;-76
2023/05/14 08:53:47;;;;;;;;;;;;;;;13.77;80.05;99709.16;4459733;32;34896;-79
2023/05/14 08:56:16;;;;;;;;;;;;;;;14.21;79.35;99717.59;4459258;32;36676;-79
2023/05/14 08:58:44;;;;;;;;;;;;;;;14.59;76.55;99713.88;4464957;32;32906;-80
2023/05/14 09:01:13;;;;;;;;;;;;;;;14.73;76.67;99705.66;4463604;32;35734;-78
2023/05/14 09:03:42;;;;;;;;;;;;;;;14.38;75.88;99714.50;4456960;32;35048;-79
2023/05/14 09:06:12;;;;;;;;;;;;;;;14.47;76.14;99717.72;4459136;32;34269;-79
2023/05/14 09:08:40;;;;;;;;;;;;;;;14.73;74.44;99719.56;4458606;32;33174;-80
2023/05/14 09:11:09;;;;;;;;;;;;;;;14.55;75.69;99719.28;4463641;32;34275;-79
2023/05/14 09:13:38;;;;;;;;;;;;;;;13.53;79.17;99710.66;4459111;32;33752;-79
2023/05/14 09:16:07;;;;;;;;;;;;;;;13.62;79.05;99713.88;4458148;32;34200;-78
2023/05/14 09:18:35;;;;;;;;;;;;;;;13.40;79.99;99710.09;4457962;32;32815;-80
2023/05/14 09:21:04;;;;;;;;;;;;;;;14.06;77.57;99706.66;4464340;32;34893;-79
2023/05/14 09:23:34;;;;;;;;;;;;;;;13.59;79.86;99703.53;4461466;32;33792;-78
2023/05/14 09:26:04;;;;;;;;;;;;;;;13.54;79.64;99692.38;4462663;32;35348;-80
2023/05/14 09:28:33;;;;;;;;;;;;;;;13.62;79.32;99686.97;4461131;32;33871;-79
2023/05/14 09:31:01;;;;;;;;;;;;;;;13.58;80.45;99677.50;4461845;32;34152;-79
2023/05/14 09:33:29;;;;;;;;;;;;;;;13.58;80.10;99682.72;4466147;32;33658;-78
2023/05/14 09:35:59;;;;;;;;;;;;;;;13.45;81.74;99675.22;4457839;32;34796;-79
2023/05/14 09:38:30;;;;;;;;;;;;;;;13.23;83.54;99679.22;4460776;32;33417;-79
2023/05/14 09:41:00;;;;;;;;;;;;;;;13.64;81.39;99682.56;4461579;32;33890;-79
2023/05/14 09:43:29;;;;;;;;;;;;;;;12.99;84.87;99670.22;4461938;32;33778;-78
2023/05/14 09:45:57;;;;;;;;;;;;;;;12.94;85.79;99657.31;4455632;32;33724;-80
2023/05/14 09:48:26;;;;;;;;;;;;;;;13.05;85.10;99649.28;4457583;32;34025;-80
2023/05/14 09:50:56;;;;;;;;;;;;;;;13.42;84.14;99651.00;4460570;32;34172;-79
2023/05/14 09:53:25;;;;;;;;;;;;;;;12.88;87.20;99654.88;4467178;32;33258;-78
2023/05/14 09:55:53;;;;;;;;;;;;;;;12.85;89.09;99649.72;4461103;32;34419;-79
2023/05/14 09:58:23;;;;;;;;;;;;;;;12.82;90.07;99648.03;4459945;32;33485;-79
2023/05/14 10:00:52;;;;;;;;;;;;;;;12.97;89.12;99639.00;4460205;32;34653;-80
2023/05/14 10:03:20;;;;;;;;;;;;;;;12.73;91.19;99623.97;4459389;32;33949;-79
2023/05/14 10:05:49;;;;;;;;;;;;;;;12.92;92.37;99619.19;4465118;32;34608;-78
2023/05/14 10:08:20;;;;;;;;;;;;;;;13.27;88.53;99614.88;4461609;32;33767;-79
2023/05/14 10:10:48;;;;;;;;;;;;;;;13.09;88.96;99606.63;4459666;32;34305;-80
2023/05/14 10:13:18;;;;;;;;;;;;;;;13.07;89.97;99605.81;4459305;32;34916;-79
2023/05/14 10:15:48;;;;;;;;;;;;;;;13.03;91.31;99589.41;4465717;32;33185;-80
2023/05/14 10:18:17;;;;;;;;;;;;;;;13.44;90.73;99586.66;4457622;32;33202;-79
2023/05/14 10:20:47;;;;;;;;;;;;;;;13.26;90.92;99574.94;4460405;32;34576;-79
2023/05/14 10:23:15;;;;;;;;;;;;;;;13.33;87.97;99562.62;4458459;32;34298;-78
2023/05/14 10:25:44;;;;;;;;;;;;;;;13.37;89.16;99544.28;4458483;32;34590;-79
2023/05/14 10:28:12;;;;;;;;;;;;;;;13.91;87.81;99547.97;4463085;32;32897;-79
2023/05/14 10:30:43;;;;;;;;;;;;;;;13.83;87.03;99555.19;4459514;32;33607;-79
2023/05/14 10:33:14;;;;;;;;;;;;;;;14.03;85.47;99573.69;4457823;32;35177;-80
2023/05/14 10:35:59;;;;;;;;;;;;;;;13.81;85.00;99583.91;4462978;32;33766;-79
2023/05/14 10:38:28;;;;;;;;;;;;;;;13.81;85.88;99583.91;4465600;32;32691;-79
2023/05/14 10:41:04;;;;;;;;;;;;;;;13.45;85.33;99578.78;4463180;32;34104;-80
2023/05/14 10:43:39;;;;;;;;;;;;;;;13.39;86.94;99570.31;4458277;32;35166;-79
2023/05/14 10:46:08;;;;;;;;;;;;;;;13.66;84.85;99576.50;4458320;32;35101;-79
2023/05/14 10:48:38;;;;;;;;;;;;;;;13.83;82.69;99569.06;4458187;32;32862;-78
2023/05/14 10:51:07;;;;;;;;;;;;;;;13.32;87.39;99576.56;4463907;32;34182;-79
2023/05/14 10:53:36;;;;;;;;;;;;;;;13.78;83.99;99573.56;4457293;32;34591;-78
2023/05/14 10:56:05;;;;;;;;;;;;;;;13.69;84.90;99570.34;4455993;32;33910;-79
2023/05/14 10:58:37;;;;;;;;;;;;;;;13.60;85.44;99574.94;4458888;32;33978;-78
2023/05/14 11:01:07;;;;;;;;;;;;;;;14.14;82.12;99562.12;4454598;32;34173;-79
2023/05/14 11:03:40;;;;;;;;;;;;;;;13.87;83.98;99578.53;4465967;32;33650;-79
2023/05/14 11:06:10;;;;;;;;;;;;;;;13.75;84.13;99567.56;4460568;32;33604;-79
2023/05/14 11:08:38;;;;;;;;;;;;;;;13.33;87.29;99566.09;4461022;32;33398;-80
2023/05/14 11:11:06;;;;;;;;;;;;;;;13.39;87.96;99558.13;4456394;32;33603;-78
2023/05/14 11:13:35;;;;;;;;;;;;;;;13.28;86.91;99556.69;4458966;32;35384;-78
2023/05/14 11:16:04;;;;;;;;;;;;;;;13.69;85.30;99559.94;4446817;32;32157;-78
2023/05/14 11:18:54;;;;;;;;;;;;;;;13.47;83.08;99560.50;4454878;32;33140;-80
2023/05/14 11:21:23;;;;;;;;;;;;;;;13.38;85.19;99556.41;4456616;32;33786;-78
2023/05/14 11:23:51;;;;;;;;;;;;;;;13.50;83.36;99555.22;4459839;32;34669;-80
2023/05/14 11:26:20;;;;;;;;;;;;;;;13.39;83.78;99554.66;4463628;32;34336;-80
2023/05/14 11:28:49;;;;;;;;;;;;;;;13.34;84.69;99552.19;4458036;32;33757;-79
2023/05/14 11:31:17;;;;;;;;;;;;;;;13.85;82.81;99545.56;4459374;32;34417;-78
2023/05/14 11:33:46;;;;;;;;;;;;;;;13.82;83.46;99553.44;4460028;32;34852;-79
2023/05/14 11:36:15;;;;;;;;;;;;;;;13.83;83.70;99553.41;4464077;32;34437;-79
2023/05/14 11:38:48;;;;;;;;;;;;;;;14.18;82.55;99550.66;4458734;32;32962;-79
2023/05/14 11:41:16;;;;;;;;;;;;;;;13.65;84.63;99556.53;4454320;32;33817;-78
2023/05/14 11:43:45;;;;;;;;;;;;;;;13.61;85.37;99552.31;4453780;32;34727;-78
2023/05/14 11:46:17;;;;;;;;;;;;;;;14.11;83.39;99544.81;4454925;32;34253;-80
2023/05/14 11:48:46;;;;;;;;;;;;;;;13.93;83.68;99554.00;4459575;32;33225;-79
2023/05/14 11:51:16;;;;;;;;;;;;;;;13.93;84.49;99543.56;4452186;32;34529;-80
2023/05/14 11:53:45;;;;;;;;;;;;;;;13.61;86.44;99549.72;4452805;32;33765;-77
2023/05/14 11:56:13;;;;;;;;;;;;;;;14.14;84.40;99536.03;4456532;32;33478;-78
2023/05/14 11:58:47;;;;;;;;;;;;;;;14.31;83.05;99533.75;4463901;32;32098;-78
2023/05/14 12:01:15;;;;;;;;;;;;;;;14.29;83.13;99535.56;4455446;32;33554;-77
2023/05/14 12:03:44;;;;;;;;;;;;;;;13.86;86.93;99537.69;4459168;32;34972;-78
2023/05/14 12:06:12;;;;;;;;;;;;;;;14.24;84.65;99521.78;4459088;32;33955;-79
2023/05/14 12:08:42;;;;;;;;;;;;;;;14.00;86.65;99519.03;4458888;32;32837;-77
2023/05/14 12:11:11;;;;;;;;;;;;;;;14.12;86.35;99512.59;4435569;32;884586;-77
2023/05/14 12:13:39;;;;;;;;;;;;;;;13.83;88.27;99511.69;4456590;32;34621;-78
2023/05/14 12:16:08;;;;;;;;;;;;;;;14.23;86.35;99507.03;4459921;32;33290;-76
2023/05/14 12:18:36;;;;;;;;;;;;;;;14.25;86.66;99493.03;4459005;32;34072;-80
2023/05/14 12:21:07;;;;;;;;;;;;;;;13.48;90.48;99498.81;4463640;32;34574;-78
2023/05/14 12:23:37;;;;;;;;;;;;;;;13.61;90.29;99493.22;4457865;32;33785;-77
2023/05/14 12:26:07;;;;;;;;;;;;;;;13.17;92.86;99484.03;4448475;32;32358;-78
2023/05/14 12:28:36;;;;;;;;;;;;;;;13.18;93.34;99496.97;4459713;32;32696;-77
2023/05/14 12:31:06;;;;;;;;;;;;;;;13.56;89.94;99489.91;4456995;32;34241;-79
2023/05/14 12:33:34;;;;;;;;;;;;;;;13.57;88.68;99491.59;4462201;32;34519;-76
2023/05/14 12:36:03;;;;;;;;;;;;;;;13.37;90.64;99484.34;4458561;32;34988;-78
2023/05/14 12:38:48;;;;;;;;;;;;;;;13.27;90.90;99482.03;4457601;32;33342;-76
2023/05/14 12:41:18;;;;;;;;;;;;;;;12.87;93.19;99489.13;4457438;32;34153;-77
2023/05/14 12:43:47;;;;;;;;;;;;;;;13.41;90.50;99487.75;4462582;32;33626;-76
2023/05/14 12:46:16;;;;;;;;;;;;;;;13.54;89.30;99491.69;4457108;32;34249;-77
2023/05/14 12:48:45;;;;;;;;;;;;;;;12.96;93.06;99493.25;4457546;32;32885;-77
2023/05/14 12:51:13;;;;;;;;;;;;;;;13.00;93.33;99484.47;4457589;32;34622;-79
2023/05/14 12:53:42;;;;;;;;;;;;;;;13.00;93.70;99481.88;4454652;32;32650;-77
2023/05/14 12:56:10;;;;;;;;;;;;;;;12.43;97.22;99464.22;4464097;32;33621;-79